Time;durP1;ratioP1;P1;durP2;ratioP2;P2;SDS_P1;SDS_P2;PMS_P1;PMS_P2;Temp;Humidity;BMP_temperature;BMP_pressure;BME280_temperature;BME280_humidity;BME280_pressure;Samples;Min_cycle;Max_cycle;Signal;HPM_P1;HPM_P2
2024/01/26 00:01:00;;;;;;;103.95;33.92;;;8.00;99.90;;;;;;6340353;22;20322;-39
2024/01/26 00:03:25;;;;;;;96.38;35.08;;;8.10;99.90;;;;;;6340232;22;20015;-40
2024/01/26 00:05:51;;;;;;;102.65;34.67;;;8.10;99.90;;;;;;6339620;22;20023;-39
2024/01/26 00:08:17;;;;;;;103.55;34.45;;;8.10;99.90;;;;;;6339592;22;20051;-37
2024/01/26 00:10:42;;;;;;;103.15;36.17;;;8.20;99.90;;;;;;6339934;22;20065;-39
2024/01/26 00:13:10;;;;;;;97.95;35.20;;;8.10;99.90;;;;;;6340264;22;20438;-40
2024/01/26 00:15:35;;;;;;;95.30;34.60;;;8.10;99.90;;;;;;6339505;22;20458;-40
2024/01/26 00:18:01;;;;;;;87.05;32.22;;;8.20;99.90;;;;;;6312014;22;20128;-37
2024/01/26 00:20:27;;;;;;;89.57;34.38;;;8.30;99.90;;;;;;6311959;22;20094;-38
2024/01/26 00:22:53;;;;;;;87.30;32.92;;;8.30;99.90;;;;;;6311622;22;20090;-37
2024/01/26 00:25:18;;;;;;;77.25;31.20;;;8.20;99.90;;;;;;6339448;22;20022;-41
2024/01/26 00:27:44;;;;;;;90.22;34.80;;;8.30;99.90;;;;;;6339822;22;20019;-40
2024/01/26 00:30:10;;;;;;;73.22;30.90;;;8.30;99.90;;;;;;6339770;22;20439;-41
2024/01/26 00:32:35;;;;;;;93.00;34.20;;;8.30;99.90;;;;;;6339427;22;20431;-42
2024/01/26 00:35:01;;;;;;;81.90;32.30;;;8.30;99.90;;;;;;6339381;22;20477;-41
2024/01/26 00:37:27;;;;;;;79.53;30.50;;;8.40;99.90;;;;;;6339401;22;20093;-42
2024/01/26 00:39:52;;;;;;;73.97;30.50;;;8.40;99.90;;;;;;6312428;22;20019;-39
2024/01/26 00:42:18;;;;;;;77.80;31.75;;;8.40;99.90;;;;;;6339996;22;20066;-37
2024/01/26 00:44:44;;;;;;;77.05;32.15;;;8.40;99.90;;;;;;6311771;22;20030;-37
2024/01/26 00:47:09;;;;;;;70.40;31.67;;;8.50;99.90;;;;;;6340086;22;20026;-39
2024/01/26 00:49:35;;;;;;;70.05;29.77;;;8.40;99.90;;;;;;6339348;22;20077;-39
2024/01/26 00:52:01;;;;;;;68.63;31.33;;;8.50;99.90;;;;;;6339281;22;20007;-39
2024/01/26 00:54:27;;;;;;;50.25;23.70;;;8.50;99.90;;;;;;6339389;22;20026;-38
2024/01/26 00:56:53;;;;;;;50.67;24.58;;;8.60;99.90;;;;;;6311928;22;20019;-41
2024/01/26 00:59:18;;;;;;;52.95;24.83;;;8.50;99.90;;;;;;6339614;22;20080;-36
2024/01/26 01:01:44;;;;;;;40.00;19.55;;;8.50;99.90;;;;;;6312294;22;20011;-39
2024/01/26 01:04:10;;;;;;;39.22;20.42;;;8.50;99.90;;;;;;6286814;22;20123;-38
2024/01/26 01:06:35;;;;;;;36.80;20.38;;;8.60;99.90;;;;;;6339254;22;20014;-39
2024/01/26 01:09:01;;;;;;;43.80;21.50;;;8.60;99.90;;;;;;6285960;22;20025;-38
2024/01/26 01:11:27;;;;;;;40.20;21.65;;;8.60;99.90;;;;;;6342210;22;20022;-39
2024/01/26 01:13:53;;;;;;;37.22;19.70;;;8.60;99.90;;;;;;6339940;22;20449;-38
2024/01/26 01:16:20;;;;;;;39.80;21.63;;;8.70;99.90;;;;;;6341141;22;20023;-41
2024/01/26 01:18:46;;;;;;;43.42;21.95;;;8.70;99.90;;;;;;6341478;22;20026;-37
2024/01/26 01:21:12;;;;;;;36.97;20.13;;;8.60;99.90;;;;;;6339443;22;20334;-38
2024/01/26 01:23:37;;;;;;;39.47;22.05;;;8.60;99.90;;;;;;6340639;22;20026;-38
2024/01/26 01:26:03;;;;;;;41.40;23.45;;;8.70;99.90;;;;;;6341658;22;20021;-40
2024/01/26 01:28:29;;;;;;;40.45;21.38;;;8.70;99.90;;;;;;6313674;22;20041;-41
2024/01/26 01:30:54;;;;;;;35.47;19.05;;;8.70;99.90;;;;;;6313658;22;20070;-38
2024/01/26 01:33:21;;;;;;;34.05;18.85;;;8.70;99.90;;;;;;6340860;22;20022;-38
2024/01/26 01:35:47;;;;;;;36.30;20.40;;;8.70;99.90;;;;;;6340865;22;20454;-42
2024/01/26 01:38:12;;;;;;;32.92;19.45;;;8.70;99.90;;;;;;6341555;22;20022;-38
2024/01/26 01:40:39;;;;;;;30.80;19.55;;;8.80;99.90;;;;;;6313010;22;20026;-38
2024/01/26 01:43:05;;;;;;;25.70;16.98;;;8.70;99.90;;;;;;6288822;22;20015;-39
2024/01/26 01:45:31;;;;;;;29.92;19.75;;;8.80;99.90;;;;;;6313214;22;20037;-38
2024/01/26 01:47:57;;;;;;;28.30;17.88;;;8.80;99.90;;;;;;6340754;22;20019;-40
2024/01/26 01:50:23;;;;;;;28.45;18.92;;;8.80;99.90;;;;;;6341087;22;20018;-39
2024/01/26 01:52:50;;;;;;;27.25;18.27;;;8.80;99.90;;;;;;6340355;22;20518;-41
2024/01/26 01:55:16;;;;;;;25.23;17.58;;;8.80;99.90;;;;;;6314278;22;20108;-39
2024/01/26 01:57:44;;;;;;;25.80;16.38;;;8.80;99.90;;;;;;6341432;22;20023;-40
2024/01/26 02:00:17;;;;;;;29.77;19.30;;;8.90;99.90;;;;;;6341427;22;20018;-38
2024/01/26 02:02:45;;;;;;;27.55;16.70;;;8.80;99.90;;;;;;6341603;22;20011;-38
2024/01/26 02:05:11;;;;;;;23.73;15.82;;;8.80;99.90;;;;;;6313556;22;20080;-39
2024/01/26 02:07:36;;;;;;;24.40;15.85;;;8.80;99.90;;;;;;6314112;22;20014;-39
2024/01/26 02:10:04;;;;;;;25.65;19.10;;;8.90;99.90;;;;;;6340946;22;20394;-41
2024/01/26 02:12:29;;;;;;;21.52;15.55;;;8.90;99.90;;;;;;6287511;22;20477;-40
2024/01/26 02:14:56;;;;;;;20.23;15.52;;;8.90;99.90;;;;;;6340141;22;20018;-37
2024/01/26 02:17:29;;;;;;;27.00;18.35;;;8.90;99.90;;;;;;6340231;22;20342;-36
2024/01/26 02:19:55;;;;;;;25.08;18.60;;;8.90;99.90;;;;;;6313080;22;20054;-36
2024/01/26 02:22:21;;;;;;;25.20;18.30;;;8.90;99.90;;;;;;6340017;22;20011;-39
2024/01/26 02:24:46;;;;;;;24.67;16.55;;;9.00;99.90;;;;;;6340427;22;20090;-38
2024/01/26 02:27:13;;;;;;;28.80;20.27;;;8.90;99.90;;;;;;6287183;22;20026;-38
2024/01/26 02:29:39;;;;;;;27.27;20.15;;;8.90;99.90;;;;;;6340452;22;20071;-37
2024/01/26 02:32:05;;;;;;;24.73;18.30;;;8.80;99.90;;;;;;6341042;22;20422;-42
2024/01/26 02:34:31;;;;;;;27.70;21.30;;;8.90;99.90;;;;;;6340372;22;20107;-38
2024/01/26 02:36:56;;;;;;;27.48;21.17;;;8.90;99.90;;;;;;6341401;22;20011;-36
2024/01/26 02:39:22;;;;;;;29.20;21.45;;;8.90;99.90;;;;;;6312936;22;20018;-41
2024/01/26 02:41:48;;;;;;;24.35;17.55;;;9.00;99.90;;;;;;6339588;22;20095;-41
2024/01/26 02:44:13;;;;;;;27.90;20.98;;;8.90;99.90;;;;;;6312911;22;20030;-40
2024/01/26 02:46:39;;;;;;;28.10;20.00;;;8.90;99.90;;;;;;6340300;22;20026;-38
2024/01/26 02:49:05;;;;;;;29.50;18.88;;;8.90;99.90;;;;;;6340879;22;20296;-39
2024/01/26 02:51:31;;;;;;;29.08;19.58;;;9.00;99.90;;;;;;6339918;22;20316;-41
2024/01/26 02:54:00;;;;;;;26.17;19.45;;;9.00;99.90;;;;;;6340195;22;20090;-37
2024/01/26 02:56:26;;;;;;;27.80;18.42;;;9.00;99.90;;;;;;6340191;22;20011;-40
2024/01/26 02:58:51;;;;;;;23.60;16.90;;;9.00;99.90;;;;;;6340192;22;20093;-39
2024/01/26 03:01:17;;;;;;;29.10;19.15;;;9.00;99.90;;;;;;6286670;22;20019;-40
2024/01/26 03:03:43;;;;;;;25.30;17.65;;;9.10;99.90;;;;;;6340121;22;20019;-40
2024/01/26 03:06:11;;;;;;;22.10;16.65;;;9.10;99.90;;;;;;6313554;22;20019;-41
2024/01/26 03:08:38;;;;;;;30.15;19.77;;;9.10;99.90;;;;;;6340084;22;20515;-38
2024/01/26 03:11:04;;;;;;;26.17;18.38;;;9.10;99.90;;;;;;6340416;22;20311;-37
2024/01/26 03:13:29;;;;;;;25.45;17.05;;;9.10;99.90;;;;;;6312478;22;20026;-36
2024/01/26 03:15:55;;;;;;;25.85;17.92;;;9.10;99.90;;;;;;6312638;22;20015;-38
2024/01/26 03:18:21;;;;;;;28.45;18.40;;;9.10;99.90;;;;;;6340721;22;20097;-37
2024/01/26 03:20:47;;;;;;;25.23;17.50;;;9.00;99.90;;;;;;6340086;22;20485;-37
2024/01/26 03:23:13;;;;;;;25.70;18.00;;;9.10;99.90;;;;;;6340608;22;20046;-39
2024/01/26 03:25:39;;;;;;;25.58;18.15;;;9.10;99.90;;;;;;6339870;22;20457;-40
2024/01/26 03:28:06;;;;;;;24.90;16.42;;;9.10;99.90;;;;;;6340641;22;20013;-38
2024/01/26 03:30:35;;;;;;;28.70;18.25;;;9.20;99.90;;;;;;6340523;22;20050;-37
2024/01/26 03:33:01;;;;;;;26.92;18.67;;;9.10;99.90;;;;;;6339785;22;20331;-38
2024/01/26 03:35:27;;;;;;;29.73;18.80;;;9.10;99.90;;;;;;6339895;22;20015;-41
2024/01/26 03:37:53;;;;;;;27.55;18.83;;;9.10;99.90;;;;;;6339841;22;20477;-37
2024/01/26 03:40:20;;;;;;;29.67;19.00;;;9.00;99.90;;;;;;6339457;22;20022;-42
2024/01/26 03:42:45;;;;;;;31.33;19.33;;;9.20;99.90;;;;;;6339603;22;20093;-36
2024/01/26 03:45:12;;;;;;;27.75;16.88;;;9.20;99.90;;;;;;6340446;22;20076;-40
2024/01/26 03:47:38;;;;;;;29.42;19.70;;;9.10;99.90;;;;;;6340138;22;20037;-40
2024/01/26 03:50:05;;;;;;;31.85;20.05;;;9.20;99.90;;;;;;6339727;22;20435;-40
2024/01/26 03:52:31;;;;;;;30.98;19.77;;;9.20;99.90;;;;;;6338561;22;20007;-41
2024/01/26 03:54:57;;;;;;;31.73;20.20;;;9.20;99.90;;;;;;6339696;22;20094;-41
2024/01/26 03:57:23;;;;;;;34.42;20.80;;;9.20;99.90;;;;;;6286251;22;20019;-41
2024/01/26 03:59:49;;;;;;;31.00;18.73;;;9.30;99.90;;;;;;6338475;22;20083;-39
2024/01/26 04:02:14;;;;;;;29.52;18.42;;;9.20;99.90;;;;;;6339540;22;20007;-40
2024/01/26 04:04:40;;;;;;;32.50;19.08;;;9.20;99.90;;;;;;6340683;22;20018;-38
2024/01/26 04:07:06;;;;;;;28.33;18.35;;;9.30;99.90;;;;;;6311973;22;20011;-39
2024/01/26 04:09:32;;;;;;;29.98;17.65;;;9.20;99.90;;;;;;6312163;22;20070;-40
2024/01/26 04:11:57;;;;;;;27.77;17.88;;;9.30;99.90;;;;;;6339603;22;20070;-38
2024/01/26 04:14:23;;;;;;;30.20;17.10;;;9.30;99.90;;;;;;6312019;22;20015;-40
2024/01/26 04:16:49;;;;;;;32.80;19.10;;;9.30;99.90;;;;;;6339526;22;20025;-36
2024/01/26 04:19:14;;;;;;;27.38;17.23;;;9.30;99.90;;;;;;6311555;22;20053;-37
2024/01/26 04:21:41;;;;;;;27.55;18.58;;;9.30;99.90;;;;;;6340169;22;20007;-40
2024/01/26 04:24:07;;;;;;;26.73;17.90;;;9.40;99.90;;;;;;6338001;22;20011;-36
2024/01/26 04:26:33;;;;;;;28.25;17.33;;;9.40;99.90;;;;;;6311996;22;20438;-40
2024/01/26 04:28:59;;;;;;;32.40;19.70;;;9.40;99.90;;;;;;6339390;22;20018;-39
2024/01/26 04:31:25;;;;;;;30.15;19.25;;;9.40;99.90;;;;;;6311829;22;20050;-39
2024/01/26 04:33:50;;;;;;;30.40;19.23;;;9.40;99.90;;;;;;6339508;22;20027;-40
2024/01/26 04:36:16;;;;;;;25.35;17.48;;;9.40;99.90;;;;;;6312001;22;20015;-39
2024/01/26 04:38:42;;;;;;;31.50;19.58;;;9.50;99.90;;;;;;6311500;22;20023;-37
2024/01/26 04:41:08;;;;;;;27.17;18.45;;;9.50;99.90;;;;;;6337610;22;20022;-41
2024/01/26 04:43:34;;;;;;;32.40;20.73;;;9.50;99.90;;;;;;6339279;22;20026;-38
2024/01/26 04:46:00;;;;;;;29.88;20.27;;;9.50;99.90;;;;;;6340004;22;20330;-37
2024/01/26 04:48:25;;;;;;;28.17;18.90;;;9.50;99.90;;;;;;6314656;22;20018;-37
2024/01/26 04:50:51;;;;;;;29.10;17.02;;;9.60;99.90;;;;;;6341810;22;20022;-37
2024/01/26 04:53:18;;;;;;;27.35;18.83;;;9.60;99.90;;;;;;6341431;22;20085;-38
2024/01/26 04:55:43;;;;;;;29.70;20.42;;;9.60;99.90;;;;;;6340992;22;20446;-36
2024/01/26 04:58:09;;;;;;;29.02;19.38;;;9.60;99.90;;;;;;6341622;22;20097;-37
2024/01/26 05:00:38;;;;;;;28.13;18.50;;;9.70;99.90;;;;;;6341330;22;20018;-38
2024/01/26 05:03:04;;;;;;;27.20;19.67;;;9.60;99.90;;;;;;6341145;22;20426;-40
2024/01/26 05:05:29;;;;;;;27.13;19.80;;;9.70;99.90;;;;;;6341695;22;20022;-39
2024/01/26 05:07:55;;;;;;;29.88;18.35;;;9.60;99.90;;;;;;6341184;22;20019;-38
2024/01/26 05:10:21;;;;;;;26.73;19.55;;;9.70;99.90;;;;;;6341116;22;20061;-39
2024/01/26 05:12:47;;;;;;;25.05;16.88;;;9.70;99.90;;;;;;6313750;22;20315;-39
2024/01/26 05:15:13;;;;;;;30.65;17.55;;;9.80;99.90;;;;;;6314754;22;20090;-38
2024/01/26 05:17:38;;;;;;;22.67;15.05;;;9.80;99.90;;;;;;6341056;22;20026;-39
2024/01/26 05:20:08;;;;;;;28.92;18.25;;;9.80;99.90;;;;;;6314244;22;20023;-38
2024/01/26 05:22:34;;;;;;;24.48;16.67;;;9.90;99.90;;;;;;6313612;22;20017;-39
2024/01/26 05:25:00;;;;;;;27.05;18.73;;;9.80;99.90;;;;;;6341013;22;20015;-37
2024/01/26 05:27:26;;;;;;;22.92;16.60;;;9.80;99.90;;;;;;6314260;22;20015;-39
2024/01/26 05:29:51;;;;;;;23.02;16.58;;;9.80;99.90;;;;;;6313641;22;20442;-36
2024/01/26 05:32:19;;;;;;;22.33;16.48;;;9.80;99.90;;;;;;6341908;22;20086;-37
2024/01/26 05:34:45;;;;;;;22.35;14.68;;;9.70;99.90;;;;;;6340939;22;20021;-35
2024/01/26 05:37:11;;;;;;;27.55;17.65;;;9.70;99.90;;;;;;6340846;22;20011;-36
2024/01/26 05:39:36;;;;;;;22.77;15.95;;;9.70;99.90;;;;;;6340939;22;20068;-37
2024/01/26 05:42:02;;;;;;;26.95;17.52;;;9.70;99.90;;;;;;6312997;22;20007;-40
2024/01/26 05:44:28;;;;;;;28.38;17.25;;;9.80;99.90;;;;;;6287498;22;20017;-36
2024/01/26 05:46:54;;;;;;;22.95;14.35;;;9.80;99.90;;;;;;6341214;22;20018;-38
2024/01/26 05:49:20;;;;;;;18.27;15.43;;;9.70;99.90;;;;;;6340813;22;20015;-36
2024/01/26 05:51:45;;;;;;;20.98;15.52;;;9.90;99.90;;;;;;6341409;22;20090;-39
2024/01/26 05:54:14;;;;;;;19.15;15.13;;;9.80;99.90;;;;;;6313267;22;20046;-36
2024/01/26 05:56:43;;;;;;;20.23;14.75;;;9.80;99.90;;;;;;6312957;22;20060;-39
2024/01/26 05:59:09;;;;;;;20.55;16.00;;;9.90;99.90;;;;;;6340267;22;20458;-37
2024/01/26 06:01:35;;;;;;;26.05;16.33;;;9.80;99.90;;;;;;6340570;22;20018;-36
2024/01/26 06:04:01;;;;;;;20.67;13.50;;;9.80;99.90;;;;;;6340639;22;20071;-39
2024/01/26 06:06:27;;;;;;;21.88;15.48;;;9.80;99.90;;;;;;6313413;22;20026;-36
2024/01/26 06:08:53;;;;;;;23.27;15.25;;;9.90;99.90;;;;;;6341313;22;20019;-35
2024/01/26 06:11:20;;;;;;;23.13;16.00;;;9.90;99.90;;;;;;6340547;22;20019;-34
2024/01/26 06:13:46;;;;;;;17.40;13.07;;;9.80;99.90;;;;;;6341594;22;20081;-34
2024/01/26 06:16:15;;;;;;;19.73;14.07;;;9.90;99.90;;;;;;6313103;22;20449;-34
2024/01/26 06:18:43;;;;;;;22.25;16.00;;;9.90;99.90;;;;;;6340570;22;20021;-35
2024/01/26 06:21:10;;;;;;;17.92;13.75;;;9.90;99.90;;;;;;6340488;22;20023;-34
2024/01/26 06:23:35;;;;;;;18.95;14.05;;;9.90;99.90;;;;;;6340346;22;20059;-32
2024/01/26 06:26:01;;;;;;;26.60;15.80;;;9.90;99.90;;;;;;6340376;22;20360;-31
2024/01/26 06:28:27;;;;;;;23.63;16.02;;;10.00;99.90;;;;;;6340013;22;20029;-31
2024/01/26 06:30:53;;;;;;;23.50;16.30;;;9.90;99.90;;;;;;6340758;22;20022;-30
2024/01/26 06:33:19;;;;;;;21.85;15.65;;;9.80;99.90;;;;;;6313010;22;20094;-30
2024/01/26 06:35:44;;;;;;;19.67;14.52;;;9.80;99.90;;;;;;6288155;22;20022;-30
2024/01/26 06:38:10;;;;;;;21.58;16.33;;;9.80;99.90;;;;;;6313918;22;20023;-30
2024/01/26 06:40:36;;;;;;;21.00;14.70;;;9.90;99.90;;;;;;6312565;22;20019;-30
2024/01/26 06:43:05;;;;;;;22.10;16.50;;;9.80;99.90;;;;;;6287787;22;20025;-29
2024/01/26 06:45:31;;;;;;;22.48;15.55;;;9.90;99.90;;;;;;6313467;22;20011;-28
2024/01/26 06:47:57;;;;;;;20.33;14.07;;;10.00;99.90;;;;;;6313001;22;20014;-27
2024/01/26 06:50:22;;;;;;;18.20;13.82;;;9.90;99.90;;;;;;6340622;22;20124;-26
2024/01/26 06:52:48;;;;;;;21.83;14.35;;;9.80;99.90;;;;;;6312319;22;20394;-26
2024/01/26 06:55:14;;;;;;;20.23;13.73;;;9.90;99.90;;;;;;6312667;22;20044;-26
2024/01/26 06:57:39;;;;;;;21.35;15.27;;;9.80;99.90;;;;;;6339812;22;20132;-27
2024/01/26 07:00:07;;;;;;;19.23;14.68;;;9.80;99.90;;;;;;6313587;22;20017;-27
2024/01/26 07:02:33;;;;;;;18.40;12.80;;;9.90;99.90;;;;;;6338585;22;20015;-28
2024/01/26 07:04:59;;;;;;;16.83;11.98;;;9.80;99.90;;;;;;6338620;22;20438;-27
2024/01/26 07:07:25;;;;;;;20.83;14.05;;;9.80;99.90;;;;;;6312118;22;20080;-27
2024/01/26 07:09:50;;;;;;;19.30;13.63;;;9.80;99.90;;;;;;6340093;22;20023;-28
2024/01/26 07:12:16;;;;;;;16.20;11.55;;;10.00;99.90;;;;;;6312415;22;20071;-27
2024/01/26 07:14:42;;;;;;;20.98;13.75;;;9.90;99.90;;;;;;6286689;22;20014;-27
2024/01/26 07:17:08;;;;;;;19.63;13.05;;;9.80;99.90;;;;;;6340013;22;20026;-26
2024/01/26 07:19:34;;;;;;;15.93;10.73;;;9.90;99.90;;;;;;6340054;22;20021;-27
2024/01/26 07:21:59;;;;;;;14.57;10.90;;;9.90;99.90;;;;;;6340001;22;20015;-26
2024/01/26 07:24:25;;;;;;;16.33;11.52;;;9.90;99.90;;;;;;6286857;22;20093;-27
2024/01/26 07:26:53;;;;;;;17.17;12.68;;;10.00;99.90;;;;;;6339964;22;20334;-27
2024/01/26 07:29:19;;;;;;;13.50;10.48;;;10.00;99.90;;;;;;6340592;22;20029;-27
2024/01/26 07:31:46;;;;;;;14.18;9.93;;;10.10;99.90;;;;;;6260960;22;20393;-27
2024/01/26 07:34:12;;;;;;;12.18;9.40;;;10.00;99.90;;;;;;6312339;22;20076;-28
2024/01/26 07:36:38;;;;;;;13.35;9.60;;;10.10;99.90;;;;;;6340905;22;20026;-28
2024/01/26 07:39:07;;;;;;;12.70;10.10;;;10.10;99.90;;;;;;6339808;22;20052;-28
2024/01/26 07:41:33;;;;;;;9.32;8.32;;;10.00;99.90;;;;;;6339190;22;20015;-28
2024/01/26 07:44:00;;;;;;;9.55;7.45;;;10.10;99.90;;;;;;6340088;22;20093;-27
2024/01/26 07:46:25;;;;;;;10.23;7.95;;;10.00;99.90;;;;;;6339861;22;20438;-27
2024/01/26 07:48:51;;;;;;;11.52;7.95;;;10.10;99.90;;;;;;6339760;22;20011;-26
2024/01/26 07:51:17;;;;;;;10.25;6.85;;;10.20;99.90;;;;;;6339740;22;20015;-25
2024/01/26 07:53:42;;;;;;;11.13;7.22;;;10.10;99.90;;;;;;6312251;22;20071;-25
2024/01/26 07:56:08;;;;;;;8.48;7.13;;;10.10;99.90;;;;;;6312024;22;20019;-26
2024/01/26 07:58:34;;;;;;;11.93;9.15;;;10.00;99.90;;;;;;6287013;22;20037;-25
2024/01/26 08:00:59;;;;;;;9.15;7.40;;;10.00;99.90;;;;;;6339680;22;20460;-25
2024/01/26 08:03:25;;;;;;;8.82;7.35;;;10.00;99.90;;;;;;6339568;22;20011;-25
2024/01/26 08:05:51;;;;;;;7.30;5.88;;;10.00;99.90;;;;;;6339574;22;20011;-25
2024/01/26 08:08:16;;;;;;;9.25;7.18;;;10.00;99.90;;;;;;6312704;22;20019;-25
2024/01/26 08:10:42;;;;;;;12.13;8.20;;;10.00;99.90;;;;;;6286090;22;20021;-25
2024/01/26 08:13:09;;;;;;;9.88;6.75;;;9.80;99.90;;;;;;6340198;22;20015;-25
2024/01/26 08:15:35;;;;;;;9.30;6.68;;;9.80;99.90;;;;;;6312984;22;20123;-25
2024/01/26 08:18:00;;;;;;;10.82;7.75;;;9.90;99.90;;;;;;6312004;22;20054;-26
2024/01/26 08:20:26;;;;;;;8.15;6.97;;;9.90;99.90;;;;;;6339495;22;20014;-25
2024/01/26 08:22:52;;;;;;;8.10;6.25;;;9.80;99.90;;;;;;6312583;22;20007;-26
2024/01/26 08:25:17;;;;;;;8.13;6.32;;;9.80;99.90;;;;;;6312661;22;20326;-26
2024/01/26 08:27:43;;;;;;;10.88;6.82;;;9.80;99.90;;;;;;6311903;22;20018;-25
2024/01/26 08:30:09;;;;;;;6.07;4.43;;;9.80;99.90;;;;;;6312556;22;20042;-26
2024/01/26 08:32:35;;;;;;;9.27;6.72;;;9.70;99.90;;;;;;6339513;22;20014;-26
2024/01/26 08:35:01;;;;;;;8.70;6.25;;;9.70;99.90;;;;;;6339496;22;20026;-25
2024/01/26 08:37:27;;;;;;;10.35;5.75;;;9.70;99.90;;;;;;6311792;22;20086;-25
2024/01/26 08:39:54;;;;;;;11.10;5.22;;;9.60;99.90;;;;;;6340050;22;20019;-26
2024/01/26 08:42:20;;;;;;;10.55;5.78;;;9.70;99.90;;;;;;6338777;22;20051;-26
2024/01/26 08:44:46;;;;;;;10.15;6.63;;;9.70;99.90;;;;;;6311961;22;20346;-26
2024/01/26 08:47:11;;;;;;;7.47;4.95;;;9.60;99.90;;;;;;6311981;22;20019;-26
2024/01/26 08:49:37;;;;;;;13.80;5.93;;;9.60;99.90;;;;;;6339630;22;20059;-27
2024/01/26 08:52:04;;;;;;;13.50;5.68;;;9.60;99.90;;;;;;6260881;22;20011;-27
2024/01/26 08:54:29;;;;;;;14.50;5.20;;;9.70;99.90;;;;;;6339259;22;20022;-26
2024/01/26 08:56:56;;;;;;;9.45;3.95;;;9.60;99.90;;;;;;6339259;22;20050;-27
2024/01/26 08:59:22;;;;;;;7.20;3.28;;;9.60;99.90;;;;;;6311981;22;20019;-27
2024/01/26 09:01:48;;;;;;;12.77;4.40;;;9.70;99.90;;;;;;6339858;22;20068;-27
2024/01/26 09:04:13;;;;;;;9.95;3.65;;;9.70;99.90;;;;;;6312337;22;20050;-25
2024/01/26 09:06:39;;;;;;;7.93;2.72;;;9.60;99.90;;;;;;6285927;22;20156;-23
2024/01/26 09:09:06;;;;;;;6.32;1.58;;;9.60;99.90;;;;;;6339203;22;20015;-22
2024/01/26 09:11:32;;;;;;;3.58;0.70;;;9.10;99.90;;;;;;6311594;22;20025;-22
2024/01/26 09:13:58;;;;;;;8.05;0.90;;;8.00;99.90;;;;;;6235928;22;20018;-22
2024/01/26 09:16:23;;;;;;;4.43;1.23;;;7.60;99.90;;;;;;6339204;22;20061;-23
2024/01/26 09:18:49;;;;;;;4.20;0.60;;;8.10;99.90;;;;;;6339521;22;20019;-23
2024/01/26 09:21:15;;;;;;;6.30;0.82;;;7.40;99.90;;;;;;6311527;22;20097;-23
2024/01/26 09:23:43;;;;;;;7.53;0.95;;;8.20;99.90;;;;;;6339407;22;20015;-24
2024/01/26 09:26:10;;;;;;;5.65;0.80;;;8.20;99.90;;;;;;6311481;22;20474;-24
2024/01/26 09:28:36;;;;;;;7.78;0.85;;;7.20;99.90;;;;;;6311417;22;20026;-25
2024/01/26 09:31:02;;;;;;;3.03;0.73;;;7.80;99.90;;;;;;6339974;22;20018;-26
2024/01/26 09:33:27;;;;;;;10.30;1.55;;;7.60;99.90;;;;;;6288380;22;20013;-26
2024/01/26 09:35:54;;;;;;;8.30;0.85;;;7.70;99.90;;;;;;6313539;22;20033;-26
2024/01/26 09:38:20;;;;;;;10.48;1.58;;;7.60;99.90;;;;;;6340944;22;20076;-26
2024/01/26 09:40:46;;;;;;;11.82;1.50;;;7.30;99.90;;;;;;6314131;22;20014;-27
2024/01/26 09:43:12;;;;;;;20.65;2.08;;;7.50;99.90;;;;;;6314335;22;20025;-27
2024/01/26 09:45:37;;;;;;;10.07;2.35;;;7.40;99.90;;;;;;6313232;22;20014;-28
2024/01/26 09:48:06;;;;;;;13.27;2.33;;;7.40;99.90;;;;;;6340709;22;20018;-27
2024/01/26 09:50:32;;;;;;;21.48;2.95;;;7.30;99.90;;;;;;6314270;22;20015;-28
2024/01/26 09:52:58;;;;;;;10.88;2.65;;;7.30;99.90;;;;;;6341071;22;20078;-28
2024/01/26 09:55:25;;;;;;;14.93;2.75;;;7.20;99.90;;;;;;6340724;22;20063;-28
2024/01/26 09:57:53;;;;;;;13.32;2.50;;;7.20;99.90;;;;;;6288493;22;20050;-29
2024/01/26 10:00:19;;;;;;;9.07;2.58;;;7.20;99.90;;;;;;6340562;22;20458;-28
2024/01/26 10:02:45;;;;;;;14.77;2.75;;;7.10;99.90;;;;;;6313257;22;20021;-28
2024/01/26 10:05:15;;;;;;;7.88;2.00;;;7.00;99.90;;;;;;6340522;22;20376;-29
2024/01/26 10:07:41;;;;;;;14.90;3.92;;;7.00;99.90;;;;;;6341005;22;20033;-29
2024/01/26 10:10:07;;;;;;;19.50;2.72;;;7.10;99.90;;;;;;6340536;22;20458;-29
2024/01/26 10:12:35;;;;;;;18.15;3.30;;;7.30;99.90;;;;;;6313045;22;20037;-30
2024/01/26 10:15:07;;;;;;;21.55;3.75;;;7.40;99.90;;;;;;6287440;22;20015;-29
2024/01/26 10:17:33;;;;;;;15.80;3.78;;;7.40;99.90;;;;;;6341175;22;20015;-30
2024/01/26 10:20:18;;;;;;;18.20;2.60;;;7.40;99.90;;;;;;6340425;22;20026;-30
2024/01/26 10:22:45;;;;;;;8.48;2.00;;;7.60;99.90;;;;;;6340728;22;20016;-30
2024/01/26 10:25:12;;;;;;;18.05;3.05;;;7.60;99.90;;;;;;6313913;22;20010;-29
2024/01/26 10:27:38;;;;;;;15.68;3.00;;;7.60;99.90;;;;;;6286722;22;20353;-31
2024/01/26 10:30:09;;;;;;;18.98;3.38;;;7.60;99.90;;;;;;6287803;22;20093;-57
2024/01/26 10:32:35;;;;;;;23.17;2.75;;;7.60;99.90;;;;;;6340423;22;20022;-30
2024/01/26 10:35:05;;;;;;;18.52;3.35;;;7.70;99.90;;;;;;6340406;22;20093;-31
2024/01/26 10:37:34;;;;;;;14.98;3.65;;;7.70;99.90;;;;;;6313448;22;20089;-32
2024/01/26 10:40:01;;;;;;;17.73;4.13;;;7.70;99.90;;;;;;6312753;22;20019;-31
2024/01/26 10:42:32;;;;;;;18.73;3.28;;;7.80;99.90;;;;;;6339586;22;20321;-31
2024/01/26 10:45:00;;;;;;;13.75;3.70;;;7.80;99.90;;;;;;6313866;22;20019;-31
2024/01/26 10:47:27;;;;;;;20.48;3.35;;;7.80;99.90;;;;;;6340948;22;20062;-33
2024/01/26 10:49:55;;;;;;;19.67;3.08;;;7.70;99.90;;;;;;6340140;22;20072;-32
2024/01/26 10:52:22;;;;;;;17.13;2.92;;;7.70;99.90;;;;;;6341203;22;20014;-32
2024/01/26 10:54:49;;;;;;;16.75;3.58;;;7.70;99.90;;;;;;6340206;22;20019;-32
2024/01/26 10:57:16;;;;;;;12.95;2.53;;;7.70;99.90;;;;;;6341225;22;20019;-33
2024/01/26 10:59:45;;;;;;;13.05;2.85;;;7.80;99.90;;;;;;6340173;22;20338;-34
2024/01/26 11:02:15;;;;;;;16.40;3.30;;;7.80;99.90;;;;;;6341015;22;20069;-34
2024/01/26 11:04:44;;;;;;;14.05;3.33;;;7.80;99.90;;;;;;6312509;22;20011;-34
2024/01/26 11:07:10;;;;;;;17.35;2.90;;;7.80;99.90;;;;;;6340417;22;20017;-33
2024/01/26 11:09:41;;;;;;;7.68;2.53;;;7.80;99.90;;;;;;6312402;22;20014;-36
2024/01/26 11:12:25;;;;;;;18.08;2.83;;;7.80;99.90;;;;;;6340051;22;20426;-34
2024/01/26 11:15:09;;;;;;;14.57;2.90;;;7.60;99.90;;;;;;6340849;22;20015;-34
2024/01/26 11:17:50;;;;;;;17.85;2.95;;;7.80;99.90;;;;;;6286948;22;20117;-35
2024/01/26 11:20:22;;;;;;;19.73;3.47;;;7.90;99.90;;;;;;6286974;22;20087;-35
2024/01/26 11:23:11;;;;;;;13.25;3.22;;;7.90;99.90;;;;;;6312636;22;20050;-35
2024/01/26 11:25:49;;;;;;;15.02;3.10;;;7.70;99.90;;;;;;6311842;22;20015;-35
2024/01/26 11:28:17;;;;;;;17.33;3.30;;;7.70;99.90;;;;;;6339560;22;20423;-35
2024/01/26 11:30:52;;;;;;;12.27;2.25;;;7.70;99.90;;;;;;6312241;22;20019;-36
2024/01/26 11:33:21;;;;;;;15.30;3.05;;;7.60;99.90;;;;;;6339880;22;20015;-36
2024/01/26 11:35:48;;;;;;;23.10;3.38;;;7.70;99.90;;;;;;6340666;22;20434;-36
2024/01/26 11:38:14;;;;;;;15.50;2.83;;;7.70;99.90;;;;;;6313156;22;20015;-36
2024/01/26 11:40:40;;;;;;;14.68;2.85;;;7.80;99.90;;;;;;6339687;22;20143;-35
2024/01/26 11:43:07;;;;;;;21.85;3.63;;;7.80;99.90;;;;;;6340260;22;20014;-38
2024/01/26 11:45:36;;;;;;;11.70;2.88;;;7.80;99.90;;;;;;6339661;22;20463;-39
2024/01/26 11:48:05;;;;;;;15.43;3.53;;;7.80;99.90;;;;;;6339726;22;20018;-37
2024/01/26 11:50:31;;;;;;;20.65;3.28;;;7.60;99.90;;;;;;6312239;22;20026;-37
2024/01/26 11:52:56;;;;;;;12.00;2.70;;;7.60;99.90;;;;;;6339562;22;20011;-36
2024/01/26 11:55:22;;;;;;;12.73;2.13;;;7.50;99.90;;;;;;6339672;22;20136;-36
2024/01/26 11:57:51;;;;;;;19.08;4.10;;;7.40;99.90;;;;;;6311743;22;20026;-40
2024/01/26 12:00:18;;;;;;;15.82;3.17;;;7.30;99.90;;;;;;6312065;22;20019;-37
2024/01/26 12:02:45;;;;;;;14.13;3.50;;;7.30;99.90;;;;;;6286576;22;20046;-39
2024/01/26 12:05:11;;;;;;;15.88;3.88;;;7.20;99.90;;;;;;6286759;22;20046;-39
2024/01/26 12:07:38;;;;;;;18.50;4.30;;;7.20;99.90;;;;;;6311690;22;20045;-36
2024/01/26 12:10:05;;;;;;;19.40;3.80;;;7.20;99.90;;;;;;6339440;22;20019;-40
2024/01/26 12:12:31;;;;;;;24.52;4.40;;;7.20;99.90;;;;;;6339579;22;20011;-38
2024/01/26 12:14:57;;;;;;;27.85;6.22;;;7.30;99.90;;;;;;6339433;22;20018;-41
2024/01/26 12:17:23;;;;;;;23.00;5.47;;;7.30;99.90;;;;;;6312963;22;20027;-38
2024/01/26 12:19:49;;;;;;;11.70;2.85;;;7.30;99.90;;;;;;6286090;22;20019;-41
2024/01/26 12:22:16;;;;;;;6.10;1.58;;;7.10;99.90;;;;;;6261467;22;20129;-39
2024/01/26 12:24:42;;;;;;;16.25;2.35;;;7.10;99.90;;;;;;6339424;22;20011;-40
2024/01/26 12:27:08;;;;;;;17.50;3.20;;;7.20;99.90;;;;;;6312018;22;20083;-40
2024/01/26 12:29:34;;;;;;;14.45;3.53;;;7.00;99.90;;;;;;6340784;22;20371;-41
2024/01/26 12:32:08;;;;;;;25.15;5.15;;;6.70;99.90;;;;;;6285988;22;20014;-36
2024/01/26 12:34:36;;;;;;;36.17;6.68;;;6.50;99.90;;;;;;6340046;22;20015;-39
2024/01/26 12:37:04;;;;;;;35.75;5.85;;;6.50;99.90;;;;;;6339282;22;20034;-38